Time;durP1;ratioP1;P1;durP2;ratioP2;P2;SDS_P1;SDS_P2;PMS_P1;PMS_P2;Temp;Humidity;BMP_temperature;BMP_pressure;BME280_temperature;BME280_humidity;BME280_pressure;Samples;Min_cycle;Max_cycle;Signal;HPM_P1;HPM_P2
2021/11/02 00:02:21;;;;;;;2.03;1.60;;;4.60;99.90;;;;;;5144764;27;20195;-83
2021/11/02 00:04:46;;;;;;;1.60;1.50;;;4.60;99.90;;;;;;5142555;27;20172;-83
2021/11/02 00:07:12;;;;;;;2.37;1.30;;;4.60;99.90;;;;;;5143210;27;20178;-83
2021/11/02 00:09:40;;;;;;;2.27;1.30;;;4.60;99.90;;;;;;5144363;27;20173;-83
2021/11/02 00:12:07;;;;;;;1.50;1.40;;;4.60;99.90;;;;;;5126505;27;20207;-83
2021/11/02 00:14:33;;;;;;;1.83;1.67;;;4.50;99.90;;;;;;5142813;27;20246;-83
2021/11/02 00:17:05;;;;;;;1.87;1.33;;;4.50;99.90;;;;;;5145160;27;20179;-83
2021/11/02 00:19:31;;;;;;;2.37;1.60;;;4.50;99.90;;;;;;5146360;27;20243;-83
2021/11/02 00:22:05;;;;;;;3.37;1.90;;;4.50;99.90;;;;;;5147974;27;20185;-83
2021/11/02 00:26:56;;;;;;;1.90;1.10;;;4.50;99.90;;;;;;5144901;27;20172;-83
2021/11/02 00:29:22;;;;;;;1.87;1.40;;;4.40;99.90;;;;;;5144222;27;20621;-83
2021/11/02 00:31:48;;;;;;;2.60;1.20;;;4.40;99.90;;;;;;5143324;27;20201;-82
2021/11/02 00:34:14;;;;;;;2.97;1.43;;;4.40;99.90;;;;;;5142558;27;20215;-83
2021/11/02 00:36:39;;;;;;;4.03;1.47;;;4.40;99.90;;;;;;5142438;27;20249;-82
2021/11/02 00:39:05;;;;;;;1.57;1.40;;;4.30;99.90;;;;;;5143215;27;20184;-83
2021/11/02 00:41:31;;;;;;;2.10;1.47;;;4.20;99.90;;;;;;5142910;27;20292;-83
2021/11/02 00:43:57;;;;;;;1.73;1.37;;;4.30;99.90;;;;;;5143272;27;20192;-82
2021/11/02 00:46:31;;;;;;;1.73;1.53;;;4.40;99.90;;;;;;5143274;27;20185;-82
2021/11/02 00:48:58;;;;;;;2.97;1.50;;;4.40;99.90;;;;;;5142394;27;20184;-82
2021/11/02 00:51:24;;;;;;;4.87;1.50;;;4.40;99.90;;;;;;5144505;27;20181;-82
2021/11/02 00:53:50;;;;;;;2.90;1.73;;;4.40;99.90;;;;;;5149021;27;20207;-82
2021/11/02 00:56:16;;;;;;;3.43;1.40;;;4.40;99.90;;;;;;5144964;27;20177;-83
2021/11/02 00:58:41;;;;;;;2.37;1.30;;;4.50;99.90;;;;;;5140226;27;20188;-82
2021/11/02 01:01:07;;;;;;;4.30;1.67;;;4.50;99.90;;;;;;5140225;27;20228;-82
2021/11/02 01:03:34;;;;;;;3.60;1.27;;;4.60;99.90;;;;;;5141843;27;20183;-83
2021/11/02 01:06:00;;;;;;;3.87;1.50;;;4.50;99.90;;;;;;5140770;27;20207;-82
2021/11/02 01:08:26;;;;;;;1.90;1.47;;;4.60;99.90;;;;;;5141055;27;20179;-83
2021/11/02 01:10:53;;;;;;;1.83;1.30;;;4.60;99.90;;;;;;5141809;27;20178;-82
2021/11/02 01:13:19;;;;;;;3.67;1.63;;;4.60;99.90;;;;;;5140653;27;20212;-83
2021/11/02 01:15:45;;;;;;;1.60;1.40;;;4.60;99.90;;;;;;5140665;27;20187;-83
2021/11/02 01:18:11;;;;;;;1.87;1.13;;;4.60;99.90;;;;;;5140821;27;20182;-82
2021/11/02 01:20:38;;;;;;;1.63;1.23;;;4.50;99.90;;;;;;5140725;27;20546;-82
2021/11/02 01:23:04;;;;;;;2.27;1.60;;;4.50;99.90;;;;;;5140195;27;20206;-82
2021/11/02 01:25:29;;;;;;;1.67;1.37;;;4.40;99.90;;;;;;5140591;27;20195;-83
2021/11/02 01:27:55;;;;;;;1.63;1.50;;;4.30;99.90;;;;;;5142388;27;20168;-83
2021/11/02 01:30:21;;;;;;;1.93;1.40;;;4.30;99.90;;;;;;5140984;27;20179;-82
2021/11/02 01:32:47;;;;;;;1.60;1.10;;;4.30;99.90;;;;;;5140611;27;20211;-83
2021/11/02 01:35:13;;;;;;;1.40;1.30;;;4.30;99.90;;;;;;5142522;27;20169;-84
2021/11/02 01:37:39;;;;;;;3.00;1.23;;;4.20;99.90;;;;;;5140862;27;20740;-83
2021/11/02 01:40:11;;;;;;;1.47;1.27;;;4.20;99.90;;;;;;5140444;27;20179;-83
2021/11/02 01:42:37;;;;;;;1.50;1.40;;;4.10;99.90;;;;;;5142902;27;20615;-82
2021/11/02 01:45:05;;;;;;;2.20;1.70;;;4.10;99.90;;;;;;5142679;27;20693;-82
2021/11/02 01:47:33;;;;;;;4.87;1.27;;;4.10;99.90;;;;;;5143124;27;20183;-82
2021/11/02 01:50:00;;;;;;;4.27;1.40;;;4.10;99.90;;;;;;5143723;27;20180;-83
2021/11/02 01:52:26;;;;;;;1.60;1.37;;;4.20;99.90;;;;;;5144988;27;20179;-83
2021/11/02 01:54:52;;;;;;;1.37;1.07;;;4.10;99.90;;;;;;5143186;27;20183;-82
2021/11/02 01:57:18;;;;;;;1.77;1.47;;;4.20;99.90;;;;;;5142274;27;20173;-83
2021/11/02 01:59:44;;;;;;;3.60;1.23;;;4.20;99.90;;;;;;5141876;27;20679;-84
2021/11/02 02:02:28;;;;;;;2.73;1.60;;;4.10;99.90;;;;;;5141985;27;20288;-83
2021/11/02 02:05:12;;;;;;;2.47;1.20;;;4.30;99.90;;;;;;5141136;27;20705;-83
2021/11/02 02:08:03;;;;;;;1.93;1.40;;;4.20;99.90;;;;;;5139282;27;20187;-82
2021/11/02 02:10:52;;;;;;;1.47;1.30;;;4.30;99.90;;;;;;5140462;27;20582;-83
2021/11/02 02:13:31;;;;;;;1.40;1.10;;;4.30;99.90;;;;;;5124739;27;20218;-82
2021/11/02 02:16:23;;;;;;;1.30;1.20;;;4.30;99.90;;;;;;5139454;27;20216;-82
2021/11/02 02:18:58;;;;;;;3.37;1.20;;;4.30;99.90;;;;;;5139809;27;20198;-83
2021/11/02 02:21:50;;;;;;;3.73;1.20;;;4.40;99.90;;;;;;5138928;27;20657;-82
2021/11/02 02:24:37;;;;;;;1.60;1.33;;;4.40;99.90;;;;;;5139125;27;20175;-82
2021/11/02 02:27:18;;;;;;;2.90;1.20;;;4.40;99.90;;;;;;5138667;27;20517;-82
2021/11/02 02:29:45;;;;;;;1.40;1.30;;;4.50;99.90;;;;;;5138828;27;20179;-82
2021/11/02 02:32:16;;;;;;;2.80;1.40;;;4.50;99.90;;;;;;5139136;27;20191;-82
2021/11/02 02:34:49;;;;;;;2.17;1.17;;;4.50;99.90;;;;;;5139067;27;20551;-82
2021/11/02 02:37:18;;;;;;;1.30;1.20;;;4.50;99.90;;;;;;5139899;27;20231;-82
2021/11/02 02:39:45;;;;;;;1.50;1.40;;;4.50;99.90;;;;;;5141467;27;20168;-82
2021/11/02 02:42:12;;;;;;;1.30;1.07;;;4.50;99.90;;;;;;5141247;27;20218;-82
2021/11/02 02:44:41;;;;;;;1.20;1.10;;;4.40;99.90;;;;;;5147273;27;20181;-82
2021/11/02 02:47:08;;;;;;;1.43;1.10;;;4.40;99.90;;;;;;5146014;27;20179;-82
2021/11/02 02:49:34;;;;;;;1.20;1.10;;;4.30;99.90;;;;;;5148032;27;20214;-82
2021/11/02 02:52:00;;;;;;;1.07;0.90;;;4.40;99.90;;;;;;5146974;27;20571;-82
2021/11/02 02:54:27;;;;;;;2.73;1.03;;;4.30;99.90;;;;;;5144537;27;20212;-82
2021/11/02 02:56:54;;;;;;;5.33;1.57;;;4.30;99.90;;;;;;5139650;27;20204;-82
2021/11/02 02:59:21;;;;;;;1.03;1.00;;;4.30;99.90;;;;;;5139804;27;20179;-82
2021/11/02 03:01:48;;;;;;;6.73;1.20;;;4.20;99.90;;;;;;5140495;28;20282;-82
2021/11/02 03:04:21;;;;;;;3.67;1.20;;;4.20;99.90;;;;;;5138056;28;20233;-82
2021/11/02 03:06:50;;;;;;;1.30;1.20;;;4.20;99.90;;;;;;5139307;27;20171;-82
2021/11/02 03:09:17;;;;;;;1.23;1.13;;;4.20;99.90;;;;;;5121050;28;20188;-82
2021/11/02 03:11:44;;;;;;;1.63;1.00;;;4.20;99.90;;;;;;5139212;28;20199;-82
2021/11/02 03:14:20;;;;;;;1.23;0.93;;;4.20;99.90;;;;;;5138695;28;20206;-82
2021/11/02 03:55:35;;;;;;;1.27;1.00;;;4.60;99.90;;;;;;5142742;27;20239;-82
2021/11/02 03:58:06;;;;;;;1.00;0.80;;;4.60;99.90;;;;;;5141771;27;20160;-82
2021/11/02 04:23:29;;;;;;;1.63;1.00;;;4.60;99.90;;;;;;5141588;27;20250;-82
2021/11/02 05:48:05;;;;;;;2.17;1.40;;;5.10;99.90;;;;;;5141684;27;20198;-83
2021/11/02 05:56:05;;;;;;;1.77;1.60;;;4.90;99.90;;;;;;5141690;27;20565;-82
2021/11/02 05:58:46;;;;;;;1.70;1.60;;;4.80;99.90;;;;;;5139131;27;20168;-82
2021/11/02 06:03:45;;;;;;;3.27;1.77;;;4.60;99.90;;;;;;5139832;27;20632;-81
2021/11/02 06:09:03;;;;;;;2.53;2.17;;;4.50;99.90;;;;;;5140500;27;20194;-81
2021/11/02 06:28:43;;;;;;;3.13;2.37;;;4.40;99.90;;;;;;5140123;27;20179;-81
2021/11/02 06:31:17;;;;;;;7.47;2.40;;;4.40;99.90;;;;;;5138353;27;20529;-82
2021/11/02 06:33:55;;;;;;;10.27;3.50;;;4.40;99.90;;;;;;5137868;27;20202;-82
2021/11/02 06:42:04;;;;;;;9.23;3.47;;;4.40;99.90;;;;;;5139499;27;20532;-81
2021/11/02 06:45:27;;;;;;;3.40;2.50;;;4.40;99.90;;;;;;5137791;27;20637;-81
2021/11/02 07:18:04;;;;;;;2.23;1.60;;;4.70;99.90;;;;;;5145672;27;20161;-82
2021/11/02 08:46:32;;;;;;;3.17;1.70;;;11.50;99.90;;;;;;5142500;27;20253;-82
2021/11/02 08:49:00;;;;;;;5.50;0.80;;;11.80;99.90;;;;;;5141792;27;20182;-82
2021/11/02 08:51:26;;;;;;;1.60;0.70;;;12.10;99.90;;;;;;5141895;27;20186;-82
2021/11/02 08:53:53;;;;;;;1.43;0.70;;;12.30;99.90;;;;;;5142110;27;20226;-82
2021/11/02 08:56:19;;;;;;;1.10;0.83;;;12.60;99.90;;;;;;5142420;27;20177;-82
2021/11/02 08:58:48;;;;;;;1.03;0.80;;;12.90;99.90;;;;;;5142424;27;20173;-82
2021/11/02 09:01:21;;;;;;;1.43;0.90;;;13.00;99.90;;;;;;5142238;27;20177;-81
2021/11/02 09:03:51;;;;;;;2.20;1.00;;;12.50;99.90;;;;;;5142124;27;20246;-82
2021/11/02 09:06:23;;;;;;;1.37;0.70;;;12.50;99.90;;;;;;5143117;27;20203;-81
2021/11/02 09:09:01;;;;;;;2.10;0.67;;;13.00;99.90;;;;;;5143607;27;20193;-82
2021/11/02 09:11:28;;;;;;;2.33;0.80;;;13.20;99.90;;;;;;5144817;27;20178;-82
2021/11/02 09:13:56;;;;;;;2.50;1.03;;;13.70;99.90;;;;;;5146078;27;20199;-82
2021/11/02 09:16:26;;;;;;;1.77;0.77;;;13.70;99.90;;;;;;5143058;27;20171;-82
2021/11/02 09:18:54;;;;;;;1.37;0.73;;;13.80;99.90;;;;;;5140732;27;20266;-81
2021/11/02 09:21:21;;;;;;;1.87;1.03;;;14.20;99.90;;;;;;5139368;27;20183;-81
2021/11/02 09:23:50;;;;;;;1.77;0.90;;;14.70;99.90;;;;;;5140125;27;20167;-81
2021/11/02 09:26:19;;;;;;;1.97;1.10;;;14.30;99.90;;;;;;5139205;27;20649;-80
2021/11/02 09:28:46;;;;;;;1.97;1.40;;;13.20;99.90;;;;;;5138485;27;20175;-80
2021/11/02 09:31:13;;;;;;;6.23;3.00;;;12.30;99.90;;;;;;5140496;27;20640;-81
2021/11/02 09:33:39;;;;;;;3.73;1.93;;;11.50;99.90;;;;;;5139695;27;20214;-80
2021/11/02 09:36:07;;;;;;;2.97;0.83;;;11.00;99.90;;;;;;5138971;27;20261;-80
2021/11/02 09:39:03;;;;;;;2.00;0.80;;;10.70;99.90;;;;;;5138729;27;20169;-81
2021/11/02 09:41:56;;;;;;;19.07;9.10;;;10.30;99.90;;;;;;5140169;27;20236;-81
2021/11/02 09:44:56;;;;;;;1.53;1.00;;;10.20;99.90;;;;;;5139679;27;20666;-80
2021/11/02 09:47:59;;;;;;;1.90;0.90;;;10.60;99.90;;;;;;5119410;27;20179;-80
2021/11/02 09:51:02;;;;;;;1.33;1.10;;;10.80;99.90;;;;;;5138619;27;20176;-80
2021/11/02 09:54:01;;;;;;;4.00;1.23;;;10.70;99.90;;;;;;5139707;27;20210;-80
2021/11/02 09:56:37;;;;;;;1.40;0.73;;;10.40;99.90;;;;;;5140025;27;20148;-80
2021/11/02 09:59:40;;;;;;;3.40;0.73;;;10.00;99.90;;;;;;5140041;27;20174;-81
2021/11/02 10:02:24;;;;;;;1.13;0.70;;;9.80;99.90;;;;;;5093250;27;20194;-80
2021/11/02 10:05:20;;;;;;;4.00;1.40;;;9.50;99.90;;;;;;5137250;27;20163;-80
2021/11/02 10:08:04;;;;;;;3.17;1.00;;;9.30;99.90;;;;;;5139803;27;20159;-80
2021/11/02 10:10:46;;;;;;;1.00;0.87;;;9.20;99.90;;;;;;5139362;27;20171;-80
2021/11/02 10:13:30;;;;;;;1.13;0.80;;;9.10;99.90;;;;;;5139121;27;20222;-80
2021/11/02 10:16:05;;;;;;;6.27;2.70;;;9.10;99.90;;;;;;5140650;27;20159;-80
2021/11/02 10:19:07;;;;;;;10.47;5.00;;;9.00;99.90;;;;;;5141177;27;20166;-80
2021/11/02 10:21:54;;;;;;;10.83;5.37;;;9.00;99.90;;;;;;5141495;27;20261;-79
2021/11/02 10:24:44;;;;;;;91.47;45.03;;;8.90;99.90;;;;;;5141912;27;20174;-80
2021/11/02 10:27:16;;;;;;;23.20;11.77;;;9.00;99.90;;;;;;5138411;27;20163;-80
2021/11/02 10:30:15;;;;;;;11.27;5.30;;;9.10;99.90;;;;;;5137088;27;20181;-80
2021/11/02 10:32:45;;;;;;;2.87;1.97;;;9.10;99.90;;;;;;5137232;27;20211;-80
2021/11/02 10:35:21;;;;;;;1.97;1.30;;;9.00;99.90;;;;;;5137336;27;20262;-80
2021/11/02 10:38:09;;;;;;;1.83;0.93;;;9.00;99.90;;;;;;5137119;27;20168;-80
2021/11/02 10:40:55;;;;;;;1.77;0.70;;;9.00;99.90;;;;;;5137264;27;20159;-80
2021/11/02 10:43:43;;;;;;;1.73;1.00;;;9.10;99.90;;;;;;5136998;27;20245;-80
2021/11/02 10:46:12;;;;;;;1.40;1.00;;;9.10;99.90;;;;;;5136634;27;20243;-80
2021/11/02 10:48:41;;;;;;;1.83;1.00;;;9.10;99.90;;;;;;5138431;27;20171;-80
2021/11/02 10:51:13;;;;;;;1.27;0.93;;;9.10;99.90;;;;;;5138695;27;20174;-80
2021/11/02 10:53:49;;;;;;;1.27;0.87;;;8.90;99.90;;;;;;5137051;27;20219;-81
2021/11/02 10:56:28;;;;;;;1.00;0.83;;;8.80;99.90;;;;;;5137403;27;20159;-80
2021/11/02 10:58:59;;;;;;;2.00;1.00;;;8.80;99.90;;;;;;5137724;27;20167;-80
2021/11/02 11:01:28;;;;;;;1.30;0.80;;;8.80;99.90;;;;;;5138466;27;20159;-80
2021/11/02 11:03:56;;;;;;;2.93;1.30;;;8.90;99.90;;;;;;5138471;28;20166;-80
2021/11/02 11:06:24;;;;;;;2.63;1.97;;;9.00;99.90;;;;;;5137381;27;20216;-81
2021/11/02 11:08:51;;;;;;;1.97;1.40;;;9.00;99.90;;;;;;5137674;27;20178;-79
2021/11/02 11:11:20;;;;;;;2.03;1.23;;;8.90;99.90;;;;;;5138121;28;20348;-79
2021/11/02 11:13:48;;;;;;;3.60;1.60;;;8.70;99.90;;;;;;5137070;28;20656;-79
2021/11/02 11:16:24;;;;;;;73.53;28.17;;;8.60;99.90;;;;;;5136257;28;20220;-78
2021/11/02 11:19:03;;;;;;;13.30;5.33;;;8.60;99.90;;;;;;5137307;27;20163;-79
2021/11/02 11:21:34;;;;;;;9.93;5.43;;;8.70;99.90;;;;;;5136077;27;20166;-79
2021/11/02 11:24:22;;;;;;;1.00;0.90;;;8.70;99.90;;;;;;5136195;28;20215;-79
2021/11/02 11:26:50;;;;;;;1.63;0.97;;;8.60;99.90;;;;;;5137434;28;20159;-81
2021/11/02 11:29:21;;;;;;;1.23;0.87;;;8.50;99.90;;;;;;5138374;28;20668;-79
2021/11/02 11:31:51;;;;;;;1.33;1.23;;;8.40;99.90;;;;;;5137395;28;20194;-79
2021/11/02 11:34:18;;;;;;;1.23;1.03;;;8.30;99.90;;;;;;5137603;28;20201;-79
2021/11/02 11:36:49;;;;;;;1.10;1.00;;;8.30;99.90;;;;;;5137241;27;20200;-79
2021/11/02 11:39:19;;;;;;;1.40;0.83;;;8.30;99.90;;;;;;5136091;28;20201;-79
2021/11/02 11:41:50;;;;;;;0.90;0.87;;;8.30;99.90;;;;;;5136715;28;20254;-79
2021/11/02 11:44:21;;;;;;;0.97;0.80;;;8.40;99.90;;;;;;5137766;28;20170;-79
2021/11/02 11:46:47;;;;;;;0.80;0.70;;;8.40;99.90;;;;;;5137578;28;20195;-80
2021/11/02 11:49:23;;;;;;;0.80;0.80;;;8.40;99.90;;;;;;5136917;27;20187;-79
2021/11/02 11:52:04;;;;;;;0.77;0.77;;;8.50;99.90;;;;;;5141864;27;20575;-80
2021/11/02 11:54:51;;;;;;;1.93;1.10;;;8.60;99.90;;;;;;5142141;27;20653;-79
2021/11/02 11:57:35;;;;;;;0.90;0.70;;;9.30;99.90;;;;;;5139584;27;20184;-81
2021/11/02 12:00:05;;;;;;;0.90;0.57;;;9.80;99.90;;;;;;5141350;27;20168;-80
2021/11/02 12:02:53;;;;;;;0.93;0.77;;;9.60;99.90;;;;;;5140462;27;20324;-80
2021/11/02 12:05:21;;;;;;;1.40;0.63;;;9.40;99.90;;;;;;5139474;27;20165;-80
2021/11/02 12:08:04;;;;;;;0.47;0.43;;;9.30;99.90;;;;;;5140286;27;20618;-79
2021/11/02 12:10:31;;;;;;;1.60;0.90;;;9.00;99.90;;;;;;5139223;27;20174;-80
2021/11/02 12:13:05;;;;;;;1.10;0.80;;;8.90;99.90;;;;;;5139372;27;20200;-80
2021/11/02 12:16:02;;;;;;;2.63;0.80;;;8.90;99.90;;;;;;5140359;27;20176;-79
2021/11/02 12:18:35;;;;;;;9.30;4.53;;;9.00;99.90;;;;;;5141572;27;20576;-81
2021/11/02 12:21:01;;;;;;;15.30;8.67;;;9.30;99.90;;;;;;5141373;27;20237;-80
2021/11/02 12:23:35;;;;;;;4.60;2.77;;;9.70;99.90;;;;;;5142517;27;20191;-80
2021/11/02 12:26:01;;;;;;;7.23;4.13;;;10.00;99.90;;;;;;5141607;27;20685;-81
2021/11/02 12:28:30;;;;;;;1.80;1.00;;;9.90;99.90;;;;;;5140942;27;20201;-80
2021/11/02 12:31:07;;;;;;;1.57;1.00;;;10.00;99.90;;;;;;5142191;27;20170;-80
2021/11/02 12:33:35;;;;;;;0.83;0.77;;;10.20;99.90;;;;;;5142580;27;20571;-80
2021/11/02 12:36:05;;;;;;;1.63;0.80;;;10.70;99.90;;;;;;5143349;27;20663;-81
2021/11/02 12:38:33;;;;;;;2.20;0.83;;;12.20;99.90;;;;;;5141919;27;20178;-81
2021/11/02 12:40:58;;;;;;;1.40;1.10;;;13.20;99.90;;;;;;5144664;27;20617;-82
2021/11/02 12:43:29;;;;;;;0.50;0.50;;;14.60;99.90;;;;;;5143097;27;20199;-81
2021/11/02 12:45:59;;;;;;;0.67;0.50;;;13.60;99.90;;;;;;5142032;27;20164;-80
2021/11/02 12:48:26;;;;;;;1.87;1.00;;;12.40;99.90;;;;;;5145200;27;20178;-82
2021/11/02 12:50:53;;;;;;;1.27;1.10;;;11.80;99.90;;;;;;5147965;27;20264;-80
2021/11/02 12:53:20;;;;;;;0.53;0.50;;;11.40;99.90;;;;;;5145884;27;20675;-79
2021/11/02 12:55:46;;;;;;;0.80;0.70;;;12.40;99.90;;;;;;5143935;27;20196;-79
2021/11/02 12:58:11;;;;;;;1.10;1.00;;;13.40;99.90;;;;;;5144246;27;20175;-79
2021/11/02 13:00:50;;;;;;;0.80;0.70;;;14.20;99.90;;;;;;5147249;27;20173;-83
2021/11/02 13:03:25;;;;;;;0.77;0.77;;;14.60;99.90;;;;;;5141096;27;20195;-79
2021/11/02 13:06:03;;;;;;;0.50;0.50;;;13.70;99.90;;;;;;5141591;27;20636;-79
2021/11/02 13:08:47;;;;;;;3.13;1.40;;;13.00;99.90;;;;;;5144306;27;20189;-84
2021/11/02 13:11:19;;;;;;;1.03;0.60;;;14.40;99.90;;;;;;5144583;27;20159;-79
2021/11/02 13:13:57;;;;;;;2.13;0.60;;;13.20;99.90;;;;;;5143258;27;20277;-79
2021/11/02 13:16:24;;;;;;;3.30;0.83;;;12.10;99.90;;;;;;5144007;27;20167;-78
2021/11/02 13:18:49;;;;;;;0.50;0.50;;;11.50;99.90;;;;;;5142552;27;20179;-82
2021/11/02 13:21:29;;;;;;;0.47;0.47;;;11.20;99.90;;;;;;5140453;27;20651;-79
2021/11/02 13:24:26;;;;;;;0.50;0.30;;;11.40;99.90;;;;;;5138942;27;20300;-80
2021/11/02 13:26:55;;;;;;;1.50;0.50;;;11.90;99.90;;;;;;5116473;27;20198;-81
2021/11/02 13:29:27;;;;;;;1.37;0.60;;;13.30;99.90;;;;;;5141033;27;20601;-81
2021/11/02 13:31:54;;;;;;;0.80;0.77;;;14.00;99.90;;;;;;5141533;27;20204;-80
2021/11/02 13:34:37;;;;;;;0.80;0.50;;;14.30;99.90;;;;;;5141854;27;20606;-80
2021/11/02 13:37:10;;;;;;;1.27;0.50;;;13.60;99.90;;;;;;5140701;27;20550;-80
2021/11/02 13:39:57;;;;;;;1.73;0.60;;;12.40;99.90;;;;;;5139809;27;20257;-80
2021/11/02 13:42:51;;;;;;;0.50;0.50;;;11.70;99.90;;;;;;5140327;27;20202;-80
2021/11/02 13:45:21;;;;;;;2.60;1.40;;;11.50;99.90;;;;;;5140235;27;20186;-80
2021/11/02 13:47:47;;;;;;;6.30;2.90;;;11.20;99.90;;;;;;5140764;27;20175;-80
2021/11/02 13:50:14;;;;;;;1.73;0.90;;;11.10;99.90;;;;;;5140274;27;20616;-80
2021/11/02 13:52:41;;;;;;;0.70;0.67;;;10.90;99.90;;;;;;5142046;27;20245;-80
2021/11/02 13:55:07;;;;;;;8.20;3.10;;;10.60;99.90;;;;;;5141987;27;20285;-80
2021/11/02 13:57:33;;;;;;;1.33;0.93;;;10.30;99.90;;;;;;5143461;27;20179;-81
2021/11/02 13:59:59;;;;;;;1.57;1.23;;;10.30;99.90;;;;;;5144751;27;20240;-79
2021/11/02 14:02:27;;;;;;;3.23;1.37;;;10.20;99.90;;;;;;5145257;27;20533;-81
2021/11/02 14:04:54;;;;;;;14.73;6.27;;;10.10;99.90;;;;;;5144380;27;20178;-81
2021/11/02 14:07:25;;;;;;;5.63;2.27;;;10.00;99.90;;;;;;5138810;27;20201;-80
2021/11/02 14:09:57;;;;;;;5.63;2.70;;;9.80;99.90;;;;;;5138976;27;20269;-81
2021/11/02 14:12:27;;;;;;;25.43;10.43;;;9.60;99.90;;;;;;5139648;27;20664;-80
2021/11/02 14:15:16;;;;;;;25.30;10.27;;;9.40;99.90;;;;;;5141848;27;20194;-81
2021/11/02 14:17:43;;;;;;;5.03;2.20;;;9.30;99.90;;;;;;5139894;27;20165;-80
2021/11/02 14:20:33;;;;;;;5.20;3.50;;;9.30;99.90;;;;;;5141449;27;20200;-80
2021/11/02 14:23:00;;;;;;;2.80;1.73;;;9.40;99.90;;;;;;5140713;27;20195;-80
2021/11/02 14:25:33;;;;;;;1.53;1.30;;;9.40;99.90;;;;;;5140277;27;20545;-80
2021/11/02 14:27:59;;;;;;;1.03;0.80;;;9.40;99.90;;;;;;5142725;27;20256;-80
2021/11/02 14:30:31;;;;;;;1.87;1.03;;;9.30;99.90;;;;;;5140916;27;20194;-80
2021/11/02 14:33:00;;;;;;;1.37;1.13;;;9.20;99.90;;;;;;5140937;27;20680;-80
2021/11/02 14:35:38;;;;;;;1.20;1.10;;;9.20;99.90;;;;;;5141523;27;20170;-80
2021/11/02 14:38:09;;;;;;;0.80;0.80;;;9.10;99.90;;;;;;5140974;27;20178;-80
2021/11/02 14:40:40;;;;;;;1.43;1.10;;;9.10;99.90;;;;;;5141317;27;20169;-80
2021/11/02 14:43:15;;;;;;;2.63;1.13;;;9.00;99.90;;;;;;5141190;27;20194;-80
2021/11/02 14:45:50;;;;;;;2.00;0.80;;;9.00;99.90;;;;;;5140655;27;20170;-80
2021/11/02 14:48:25;;;;;;;1.03;0.90;;;8.90;99.90;;;;;;5141381;27;20178;-81
2021/11/02 14:50:52;;;;;;;1.60;1.40;;;8.80;99.90;;;;;;5141877;27;20652;-80
2021/11/02 14:53:27;;;;;;;1.70;1.50;;;8.80;99.90;;;;;;5142927;27;20198;-80
2021/11/02 14:56:02;;;;;;;1.23;1.13;;;8.80;99.90;;;;;;5141763;27;20180;-80
2021/11/02 14:58:55;;;;;;;1.30;1.10;;;8.80;99.90;;;;;;5142172;27;20174;-81
2021/11/02 15:01:47;;;;;;;1.40;1.10;;;8.80;99.90;;;;;;5111488;27;20204;-81
2021/11/02 15:04:14;;;;;;;2.63;1.23;;;8.80;99.90;;;;;;5143016;27;20177;-80
2021/11/02 15:06:41;;;;;;;2.50;1.30;;;8.70;99.90;;;;;;5143720;28;20171;-80
2021/11/02 15:09:10;;;;;;;1.93;1.07;;;8.60;99.90;;;;;;5144510;28;20195;-80
2021/11/02 15:11:40;;;;;;;1.20;1.10;;;8.70;99.90;;;;;;5143594;28;20198;-80
2021/11/02 15:14:15;;;;;;;1.23;0.90;;;8.70;99.90;;;;;;5143330;27;20179;-80
2021/11/02 15:16:51;;;;;;;1.20;1.03;;;8.70;99.90;;;;;;5144713;28;20234;-80
2021/11/02 15:19:18;;;;;;;1.00;0.90;;;8.60;99.90;;;;;;5145125;28;20577;-80
2021/11/02 15:21:52;;;;;;;0.97;0.70;;;8.40;99.90;;;;;;5143417;28;20229;-80
2021/11/02 15:24:34;;;;;;;1.03;0.83;;;8.30;99.90;;;;;;5141098;27;20618;-80
2021/11/02 15:27:01;;;;;;;1.20;1.03;;;8.20;99.90;;;;;;5143837;27;20239;-80
2021/11/02 15:29:29;;;;;;;1.47;1.10;;;8.10;99.90;;;;;;5144966;27;20174;-80
2021/11/02 15:32:00;;;;;;;1.53;1.00;;;7.90;99.90;;;;;;5145182;27;20274;-80
2021/11/02 15:34:38;;;;;;;1.97;1.20;;;7.90;99.90;;;;;;5144531;27;20267;-80
2021/11/02 15:37:06;;;;;;;1.87;1.33;;;7.80;99.90;;;;;;5145493;27;20176;-80
2021/11/02 15:39:32;;;;;;;1.50;1.40;;;7.70;99.90;;;;;;5143167;27;20177;-80
2021/11/02 15:41:58;;;;;;;4.50;1.70;;;7.60;99.90;;;;;;5140322;27;20279;-81
2021/11/02 15:44:27;;;;;;;3.03;1.87;;;7.60;99.90;;;;;;5144327;27;20211;-80
2021/11/02 15:46:53;;;;;;;3.57;1.50;;;7.50;99.90;;;;;;5143592;27;20171;-80
2021/11/02 15:49:22;;;;;;;13.03;8.93;;;7.50;99.90;;;;;;5144404;27;20271;-80
2021/11/02 15:51:55;;;;;;;2.10;1.60;;;7.50;99.90;;;;;;5143171;27;20192;-80
2021/11/02 15:54:21;;;;;;;2.53;1.53;;;7.50;99.90;;;;;;5145559;27;20191;-80
2021/11/02 15:56:47;;;;;;;2.90;2.03;;;7.40;99.90;;;;;;5143727;27;20190;-80
2021/11/02 15:59:12;;;;;;;2.73;2.10;;;7.40;99.90;;;;;;5143926;27;20208;-80
2021/11/02 16:01:43;;;;;;;5.57;3.23;;;7.40;99.90;;;;;;5143212;27;20220;-80
2021/11/02 16:04:20;;;;;;;2.00;1.80;;;7.40;99.90;;;;;;5143622;27;20178;-80
2021/11/02 16:07:01;;;;;;;3.03;2.10;;;7.40;99.90;;;;;;5143373;27;20183;-80
2021/11/02 16:09:55;;;;;;;3.90;2.37;;;7.40;99.90;;;;;;5142755;27;20222;-81
2021/11/02 16:12:25;;;;;;;4.00;3.20;;;7.30;99.90;;;;;;5143921;27;20200;-80
2021/11/02 16:15:01;;;;;;;4.53;3.20;;;7.30;99.90;;;;;;5143720;27;20230;-80
2021/11/02 16:17:28;;;;;;;3.20;1.90;;;7.20;99.90;;;;;;5142598;27;20163;-80
2021/11/02 16:19:57;;;;;;;2.07;1.40;;;7.10;99.90;;;;;;5144202;27;20174;-80
2021/11/02 16:22:23;;;;;;;1.33;1.03;;;7.10;99.90;;;;;;5142370;27;20299;-80
2021/11/02 16:25:08;;;;;;;2.33;1.70;;;7.10;99.90;;;;;;5142942;27;20168;-80
2021/11/02 16:27:34;;;;;;;1.63;0.93;;;7.10;99.90;;;;;;5141574;27;20169;-80
2021/11/02 16:30:15;;;;;;;15.87;12.90;;;7.10;99.90;;;;;;5141134;27;20184;-80
2021/11/02 16:32:43;;;;;;;2.50;2.30;;;7.00;99.90;;;;;;5142803;27;20608;-80
2021/11/02 16:35:09;;;;;;;1.60;1.50;;;7.00;99.90;;;;;;5141093;27;20206;-80
2021/11/02 16:37:39;;;;;;;1.67;1.40;;;7.00;99.90;;;;;;5141334;27;20175;-80
2021/11/02 16:40:19;;;;;;;1.50;1.13;;;6.90;99.90;;;;;;5142091;27;20168;-80
2021/11/02 16:43:15;;;;;;;3.03;2.20;;;6.90;99.90;;;;;;5140546;27;20300;-80
2021/11/02 16:45:40;;;;;;;6.70;6.20;;;6.90;99.90;;;;;;5123954;27;20190;-80
2021/11/02 16:48:07;;;;;;;2.77;2.00;;;6.80;99.90;;;;;;5141820;27;20521;-81
2021/11/02 16:50:36;;;;;;;2.00;1.50;;;6.80;99.90;;;;;;5142974;27;20227;-81
2021/11/02 16:53:10;;;;;;;3.03;1.90;;;6.70;99.90;;;;;;5141650;27;20195;-81
2021/11/02 16:55:39;;;;;;;2.97;2.57;;;6.70;99.90;;;;;;5142898;27;20170;-80
2021/11/02 16:58:26;;;;;;;2.00;1.50;;;6.60;99.90;;;;;;5141663;27;20175;-81
2021/11/02 17:01:11;;;;;;;3.30;1.87;;;6.50;99.90;;;;;;5141422;27;20405;-81
2021/11/02 17:03:37;;;;;;;1.80;1.53;;;6.50;99.90;;;;;;5140429;27;20195;-81
2021/11/02 17:06:10;;;;;;;2.00;1.43;;;6.40;99.90;;;;;;5140950;27;20185;-80
2021/11/02 17:08:36;;;;;;;2.33;1.50;;;6.30;99.90;;;;;;5140171;27;20200;-80
2021/11/02 17:11:02;;;;;;;1.93;1.73;;;6.40;99.90;;;;;;5139935;27;20171;-80
2021/11/02 17:13:35;;;;;;;3.37;1.70;;;6.20;99.90;;;;;;5142783;27;20283;-81
2021/11/02 17:16:15;;;;;;;2.77;1.90;;;6.20;99.90;;;;;;5141369;27;20159;-80
2021/11/02 17:19:01;;;;;;;3.77;2.67;;;6.20;99.90;;;;;;5140982;27;20203;-81
2021/11/02 17:21:31;;;;;;;11.70;7.57;;;6.10;99.90;;;;;;5141715;27;20189;-81
2021/11/02 17:24:02;;;;;;;6.57;3.90;;;6.00;99.90;;;;;;5141111;27;20236;-81
2021/11/02 17:26:31;;;;;;;8.87;6.33;;;6.00;99.90;;;;;;5138587;27;20178;-80
2021/11/02 17:28:57;;;;;;;4.33;3.40;;;5.90;99.90;;;;;;5140660;27;20247;-81
2021/11/02 17:31:36;;;;;;;2.57;2.23;;;5.80;99.90;;;;;;5144955;27;20174;-80
2021/11/02 17:34:03;;;;;;;2.97;2.20;;;5.80;99.90;;;;;;5151036;27;20520;-80
2021/11/02 17:36:29;;;;;;;3.17;2.27;;;5.70;99.90;;;;;;5143117;27;20261;-81
2021/11/02 17:38:56;;;;;;;3.53;2.40;;;5.60;99.90;;;;;;5141718;27;20198;-80
2021/11/02 17:41:22;;;;;;;3.87;1.90;;;;;;;;;;5142104;27;20170;-81
2021/11/02 17:43:52;;;;;;;2.73;2.00;;;5.40;99.90;;;;;;5141775;27;20409;-81
2021/11/02 17:46:19;;;;;;;2.40;2.20;;;5.40;99.90;;;;;;5143044;27;20921;-81
2021/11/02 17:48:45;;;;;;;2.83;2.27;;;;;;;;;;5146002;27;20905;-81
2021/11/02 17:51:11;;;;;;;2.93;1.90;;;5.20;99.90;;;;;;5139296;27;20436;-80
2021/11/02 17:53:38;;;;;;;2.67;2.27;;;5.20;99.90;;;;;;5137903;27;20489;-80
2021/11/02 17:56:07;;;;;;;1.87;1.73;;;5.10;99.90;;;;;;5138056;27;20174;-80
2021/11/02 17:58:34;;;;;;;4.00;2.27;;;5.10;99.90;;;;;;5138250;27;20433;-80
2021/11/02 18:01:04;;;;;;;2.33;1.73;;;5.00;99.90;;;;;;5139480;27;20430;-80
2021/11/02 18:03:30;;;;;;;3.40;2.40;;;5.00;99.90;;;;;;5137978;27;20424;-81
2021/11/02 18:06:01;;;;;;;2.67;2.43;;;5.00;99.90;;;;;;5141829;27;20416;-80
2021/11/02 18:08:30;;;;;;;4.17;3.00;;;5.00;99.90;;;;;;5141359;27;20396;-79
2021/11/02 18:10:56;;;;;;;65.73;23.67;;;5.00;99.90;;;;;;5141089;27;20753;-81
2021/11/02 18:13:24;;;;;;;6.63;4.20;;;5.00;99.90;;;;;;5141317;27;20471;-81
2021/11/02 18:15:50;;;;;;;15.30;9.77;;;5.00;99.90;;;;;;5143423;27;20852;-81
2021/11/02 18:18:16;;;;;;;18.13;12.43;;;5.00;99.90;;;;;;5143908;27;20405;-81
2021/11/02 18:20:42;;;;;;;7.83;4.10;;;;;;;;;;5142256;27;20437;-80